Big Bear Station Historical Data
Daily Summary for March 3, 2017 Units:  English    Metric   Both
« Previous Day
Next Day »
Daily Weekly Monthly Yearly Custom
  High: Low: Average:
Temperature: 55.9 °F 19.6 °F 35.6 °F
Dew Point: 24.9 °F 6.4 °F 19.6 °F
Humidity: 92 % 14 % 58 %
Wind Speed: 6.3 mph 0.0 mph 1.4 mph
Wind Gust: -999.0 mph - -
Wind:- - WSW
Pressure: 30.25 in 30.12 in -
Precipitation: 0.00 in    
Historical Graphs
 
 
Tabular Data for March 3, 2017
Time Temperature Dew Point Pressure Wind Wind Speed Wind Gust Humidity Rainfall Rate (Hourly)
00:04 24.3 °F 16.9 °F 30.25 in Calm   -999.0 mph 73 % 0 in
00:19 23.9 °F 12.4 °F 30.25 in Calm   -999.0 mph 61 % 0 in
00:34 23.7 °F 12.6 °F 30.25 in Calm   -999.0 mph 62 % 0 in
00:49 24.3 °F 14.9 °F 30.24 in Calm   -999.0 mph 67 % 0 in
01:05 24.1 °F 16.1 °F 30.24 in Calm   -999.0 mph 71 % 0 in
01:20 23.7 °F 16.9 °F 30.24 in Calm   -999.0 mph 75 % 0 in
01:35 23.2 °F 17.1 °F 30.24 in Calm   -999.0 mph 77 % 0 in
01:50 23.0 °F 17.5 °F 30.23 in Calm   -999.0 mph 79 % 0 in
02:05 23.0 °F 18.0 °F 30.22 in Calm   -999.0 mph 81 % 0 in
02:21 22.1 °F 18.0 °F 30.21 in Calm   -999.0 mph 84 % 0 in
02:36 22.3 °F 18.5 °F 30.21 in Calm   -999.0 mph 85 % 0 in
02:51 22.6 °F 18.2 °F 30.21 in Calm   -999.0 mph 83 % 0 in
03:06 21.6 °F 17.0 °F 30.20 in Calm   -999.0 mph 82 % 0 in
03:21 21.4 °F 17.3 °F 30.20 in Calm   -999.0 mph 84 % 0 in
03:37 21.0 °F 17.7 °F 30.20 in Calm   -999.0 mph 87 % 0 in
03:52 21.4 °F 17.9 °F 30.20 in Calm   -999.0 mph 86 % 0 in
04:07 21.2 °F 17.7 °F 30.20 in Calm   -999.0 mph 86 % 0 in
04:22 20.3 °F 17.6 °F 30.20 in Calm   -999.0 mph 89 % 0 in
04:53 20.1 °F 17.1 °F 30.20 in Calm   -999.0 mph 88 % 0 in
05:08 20.3 °F 17.8 °F 30.20 in Calm   -999.0 mph 90 % 0 in
05:23 19.9 °F 17.4 °F 30.20 in Calm   -999.0 mph 90 % 0 in
05:38 19.9 °F 17.4 °F 30.20 in Calm   -999.0 mph 90 % 0 in
05:54 19.8 °F 17.3 °F 30.20 in Calm   -999.0 mph 90 % 0 in
06:09 19.8 °F 17.1 °F 30.19 in Calm   -999.0 mph 89 % 0 in
06:24 19.8 °F 17.3 °F 30.19 in Calm   -999.0 mph 90 % 0 in
06:39 19.6 °F 17.4 °F 30.19 in Calm   -999.0 mph 91 % 0 in
06:54 19.8 °F 17.9 °F 30.19 in Calm   -999.0 mph 92 % 0 in
07:10 20.1 °F 18.2 °F 30.19 in Calm   -999.0 mph 92 % 0 in
07:25 20.3 °F 18.1 °F 30.19 in Calm   -999.0 mph 91 % 0 in
07:40 21.6 °F 18.9 °F 30.20 in Calm   -999.0 mph 89 % 0 in
07:55 22.5 °F 18.7 °F 30.20 in Calm   -999.0 mph 85 % 0 in
08:10 23.0 °F 18.9 °F 30.20 in Calm   -999.0 mph 84 % 0 in
08:26 24.3 °F 20.2 °F 30.20 in Calm   -999.0 mph 84 % 0 in
08:41 25.7 °F 20.1 °F 30.20 in South 1.7 mph -999.0 mph 79 % 0 in
08:56 27.5 °F 21.2 °F 30.20 in Calm   -999.0 mph 77 % 0 in
09:11 30.4 °F 24.4 °F 30.20 in WNW 1.7 mph -999.0 mph 78 % 0 in
09:26 33.4 °F 19.8 °F 30.21 in Calm   -999.0 mph 57 % 0 in
09:42 37.8 °F 18.9 °F 30.20 in NW 1.1 mph -999.0 mph 46 % 0 in
09:57 45.1 °F 13.9 °F 30.20 in Calm   -999.0 mph 28 % 0 in
10:12 48.2 °F 14.0 °F 30.20 in NW 2.2 mph -999.0 mph 25 % 0 in
10:27 48.0 °F 18.0 °F 30.19 in NW 2.7 mph -999.0 mph 30 % 0 in
10:42 52.2 °F 11.1 °F 30.19 in NW 1.7 mph -999.0 mph 19 % 0 in
10:58 54.7 °F 6.4 °F 30.18 in NW 2.2 mph -999.0 mph 14 % 0 in
11:13 55.4 °F 8.5 °F 30.18 in WNW 2.7 mph -999.0 mph 15 % 0 in
11:28 55.9 °F 16.5 °F 30.17 in WNW 2.7 mph -999.0 mph 21 % 0 in
11:43 55.0 °F 16.8 °F 30.16 in NW 2.7 mph -999.0 mph 22 % 0 in
11:59 55.0 °F 16.8 °F 30.16 in North 2.7 mph -999.0 mph 22 % 0 in
12:14 54.5 °F 17.4 °F 30.16 in NW 4.2 mph -999.0 mph 23 % 0 in
12:29 53.8 °F 19.7 °F 30.15 in NW 4.2 mph -999.0 mph 26 % 0 in
12:44 53.8 °F 17.8 °F 30.14 in NW 4.2 mph -999.0 mph 24 % 0 in
13:01 53.8 °F 19.7 °F 30.14 in NW 2.7 mph -999.0 mph 26 % 0 in
13:16 53.1 °F 17.2 °F 30.14 in West 4.2 mph -999.0 mph 24 % 0 in
13:31 52.5 °F 19.5 °F 30.13 in NW 3.7 mph -999.0 mph 27 % 0 in
13:46 52.2 °F 18.3 °F 30.13 in North 2.7 mph -999.0 mph 26 % 0 in
14:02 51.4 °F 21.8 °F 30.13 in NNW 3.7 mph -999.0 mph 31 % 0 in
14:17 51.8 °F 21.3 °F 30.13 in NW 2.2 mph -999.0 mph 30 % 0 in
14:32 50.9 °F 22.8 °F 30.13 in WNW 4.2 mph -999.0 mph 33 % 0 in
14:47 51.3 °F 23.1 °F 30.13 in WNW 6.3 mph -999.0 mph 33 % 0 in
15:03 51.4 °F 23.2 °F 30.13 in WNW 3.7 mph -999.0 mph 33 % 0 in
15:18 50.9 °F 24.9 °F 30.13 in ENE 2.2 mph -999.0 mph 36 % 0 in
15:34 50.7 °F 24.0 °F 30.13 in East 3.7 mph -999.0 mph 35 % 0 in
15:49 50.2 °F 24.3 °F 30.13 in NW 3.7 mph -999.0 mph 36 % 0 in
16:04 50.0 °F 22.7 °F 30.13 in Calm   -999.0 mph 34 % 0 in
16:20 49.3 °F 22.8 °F 30.13 in Calm   -999.0 mph 35 % 0 in
16:35 48.9 °F 22.4 °F 30.13 in NNW 1.1 mph -999.0 mph 35 % 0 in
16:50 48.6 °F 23.5 °F 30.12 in NNW 1.7 mph -999.0 mph 37 % 0 in
17:05 47.3 °F 24.2 °F 30.12 in Calm   -999.0 mph 40 % 0 in
17:20 46.2 °F 23.8 °F 30.13 in WNW 1.1 mph -999.0 mph 41 % 0 in
17:36 45.1 °F 22.8 °F 30.13 in Calm   -999.0 mph 41 % 0 in
17:51 43.7 °F 22.1 °F 30.13 in South 2.2 mph -999.0 mph 42 % 0 in
18:06 42.3 °F 22.5 °F 30.13 in SSE 2.2 mph -999.0 mph 45 % 0 in
18:21 41.5 °F 22.8 °F 30.13 in SSW 2.2 mph -999.0 mph 47 % 0 in
18:36 40.5 °F 22.8 °F 30.13 in SSW 1.1 mph -999.0 mph 49 % 0 in
18:52 39.7 °F 23.0 °F 30.13 in South 2.2 mph -999.0 mph 51 % 0 in
19:07 39.4 °F 23.2 °F 30.13 in Calm   -999.0 mph 52 % 0 in
19:22 38.5 °F 23.3 °F 30.13 in SSE 2.2 mph -999.0 mph 54 % 0 in
19:37 38.3 °F 22.7 °F 30.13 in East 2.2 mph -999.0 mph 53 % 0 in
19:52 37.9 °F 23.2 °F 30.13 in SSE 1.7 mph -999.0 mph 55 % 0 in
20:08 35.6 °F 24.6 °F 30.13 in SSE 2.7 mph -999.0 mph 64 % 0 in
20:23 34.7 °F 24.1 °F 30.14 in Calm   -999.0 mph 65 % 0 in
20:38 33.4 °F 24.3 °F 30.14 in South 1.1 mph -999.0 mph 69 % 0 in
20:53 32.5 °F 23.1 °F 30.14 in Calm   -999.0 mph 68 % 0 in
21:09 31.8 °F 22.4 °F 30.14 in Calm   -999.0 mph 68 % 0 in
21:24 31.3 °F 23.0 °F 30.14 in SSE 2.2 mph -999.0 mph 71 % 0 in
21:39 31.3 °F 23.0 °F 30.14 in SSE 2.2 mph -999.0 mph 71 % 0 in
21:54 30.7 °F 23.1 °F 30.14 in SSW 2.7 mph -999.0 mph 73 % 0 in
22:09 30.9 °F 23.6 °F 30.14 in SSE 2.2 mph -999.0 mph 74 % 0 in
22:25 31.6 °F 22.6 °F 30.13 in South 2.7 mph -999.0 mph 69 % 0 in
22:40 33.6 °F 21.6 °F 30.13 in West 2.2 mph -999.0 mph 61 % 0 in
22:55 33.1 °F 22.2 °F 30.13 in SSE 1.7 mph -999.0 mph 64 % 0 in
23:10 33.1 °F 21.9 °F 30.13 in SSE 2.7 mph -999.0 mph 63 % 0 in
23:25 33.8 °F 21.0 °F 30.12 in SSE 2.2 mph -999.0 mph 59 % 0 in
23:41 33.3 °F 19.7 °F 30.12 in SE 3.2 mph -999.0 mph 57 % 0 in
23:56 33.8 °F 18.0 °F 30.12 in SSE 2.2 mph -999.0 mph 52 % 0 in
Big Bear CA Weather
Compliments of Weather Underground - 1.5 mb